WetterOnline ( https://www.wetteronline.de )

Wetter aktuell Geisenheim

Aktuelles Wetter: Geisenheim (110m)

6-stündlich | Neueste Meldungen
Ortszeit Temperatur Wetter
So, 25.09. 8:00 12.1° C leichter Regen
So, 25.09. 2:00 12.5° C Regen
Sa, 24.09. 20:00 13.3° C wolkig
Sa, 24.09. 14:00 16.9° C bewölkt
Sa, 24.09. 8:00 8.1° C bewölkt
Sa, 24.09. 2:00 10.6° C bedeckt
Fr, 23.09. 20:00 14.3° C bedeckt
Fr, 23.09. 14:00 16.5° C wolkig
Ortszeit Temperatur Wetter
So, 25.09. 10:00 13.8° C bedeckt
So, 25.09. 9:50 13.8° C bedeckt
So, 25.09. 9:40 13.6° C bedeckt
So, 25.09. 9:30 13.0° C bedeckt
So, 25.09. 9:20 13.0° C bedeckt
So, 25.09. 9:10 12.9° C bedeckt
So, 25.09. 9:00 12.7° C Regen
So, 25.09. 8:30 12.4° C leichter Regen
So, 25.09. 8:00 12.1° C leichter Regen
So, 25.09. 7:30 12.0° C bedeckt
So, 25.09. 7:00 12.0° C bedeckt
Ortszeit Relative Feuchte Sichtweite
So, 25.09. 8:00 95% 11 km
So, 25.09. 2:00 96% 14 km
Sa, 24.09. 20:00 89% 55 km
Sa, 24.09. 14:00 60% 50 km
Sa, 24.09. 8:00 93% 35 km
Sa, 24.09. 2:00 86% 50 km
Fr, 23.09. 20:00 74% 9 km
Fr, 23.09. 14:00 55% 55 km
Ortszeit Relative Feuchte Sichtweite
So, 25.09. 10:00 88% 26 km
So, 25.09. 9:50 88% -
So, 25.09. 9:40 88% -
So, 25.09. 9:30 88% 45 km
So, 25.09. 9:20 88% -
So, 25.09. 9:10 91% -
So, 25.09. 9:00 92% 35 km
So, 25.09. 8:30 94% 22 km
So, 25.09. 8:00 95% 11 km
So, 25.09. 7:30 94% 30 km
So, 25.09. 7:00 94% 30 km
Ortszeit Niederschlagsmenge Niederschlagsart
So, 25.09. 8:00 6 l/m2 in 12 Std. Regen
So, 25.09. 2:00 4 l/m2 in 6 Std. Regen
Sa, 24.09. 20:00 5 l/m2 in 12 Std. Regen
Sa, 24.09. 14:00 0.1 l/m2 in 6 Std. Regen
Sa, 24.09. 8:00 0.0 l/m2 in 12 Std. -
Sa, 24.09. 2:00 0.0 l/m2 in 6 Std. -
Fr, 23.09. 20:00 0.0 l/m2 in 12 Std. -
Fr, 23.09. 14:00 0.0 l/m2 in 6 Std. -
Ortszeit Niederschlagsmenge Niederschlagsart
So, 25.09. 10:00 0.0 l/m2 in 1 Std. -
So, 25.09. 9:50 keine Meldung -
So, 25.09. 9:40 keine Meldung -
So, 25.09. 9:30 0.0 l/m2 in 1 Std. -
So, 25.09. 9:20 keine Meldung -
So, 25.09. 9:10 keine Meldung -
So, 25.09. 9:00 0.2 l/m2 in 1 Std. Regen
So, 25.09. 8:30 0.2 l/m2 in 1 Std. -
So, 25.09. 8:00 0.5 l/m2 in 1 Std. Regen
So, 25.09. 7:30 0.0 l/m2 in 1 Std. -
So, 25.09. 7:00 0.1 l/m2 in 1 Std. Sprühregen
Ortszeit Stärke Spitze Richtung
km/h Bft. km/h Grad Sektor
So, 25.09. 8:00 4 1 7 350° N
So, 25.09. 2:00 0 0 11 - -
Sa, 24.09. 20:00 4 1 32 290° W
Sa, 24.09. 14:00 2 1 11 140° SO
Sa, 24.09. 8:00 0 0 14 - -
Sa, 24.09. 2:00 4 1 14 250° W
Fr, 23.09. 20:00 7 2 14 350° N
Fr, 23.09. 14:00 6 1 13 170° S
Ortszeit Stärke Spitze Richtung
km/h Bft. km/h Grad Sektor
So, 25.09. 10:00 0 0 4 - -
So, 25.09. 9:50 0 0 - 220° SW
So, 25.09. 9:40 2 1 - 200° S
So, 25.09. 9:30 2 1 4 250° W
So, 25.09. 9:20 2 1 - 250° W
So, 25.09. 9:10 4 1 - 280° W
So, 25.09. 9:00 2 1 7 290° W
So, 25.09. 8:30 6 1 7 320° NW
So, 25.09. 8:00 4 1 7 350° N
So, 25.09. 7:30 4 1 7 20° N
So, 25.09. 7:00 4 1 7 330° NW
Ortszeit Untergrenze Bedeckung Gattung
total tief tief mittel hoch
So, 25.09. 8:00 930 m 8/8 8/8 - - -
So, 25.09. 2:00 1800 m 8/8 8/8 - - -
Sa, 24.09. 20:00 1500 m 8/8 3/8 - - -
Sa, 24.09. 14:00 1500 m 8/8 6/8 - - -
Sa, 24.09. 8:00 2700 m 8/8 4/8 - - -
Sa, 24.09. 2:00 3600 m 8/8 8/8 - - -
Fr, 23.09. 20:00 4800 m 8/8 8/8 - - -
Fr, 23.09. 14:00 6600 m 8/8 5/8 - - -
Ortszeit Bedeckungsgrad in Achtel und Wolkenuntergrenze
So, 25.09. 10:00 1(570m) 8(1800m) 8(2400m)
So, 25.09. 9:50 1(570m) 8(1800m) 8(2400m)
So, 25.09. 9:40 8
So, 25.09. 9:30 7(570m) 7(1170m) 8(1500m)
So, 25.09. 9:20 7(570m) 7(1170m) 8(1500m)
So, 25.09. 9:10 8
So, 25.09. 9:00 1(540m) 3(1110m) 8(1500m)
So, 25.09. 8:30 7(1050m) 8(1500m) 8(2400m)
So, 25.09. 8:00 5(930m) 7(1290m) 8(1800m)
So, 25.09. 7:30 3(990m) 8(1800m)
So, 25.09. 7:00 2(540m) 3(1350m) 8(1800m)
Ortszeit Luftdruck NN (hPa) Tendenz (hPa in 3 Std.)
So, 25.09. 8:00 1013 + 0,1
So, 25.09. 2:00 1013 - 0,2
Sa, 24.09. 20:00 1013 + 0,6
Sa, 24.09. 14:00 1013 - 0,6
Sa, 24.09. 8:00 1013 - 0,4
Sa, 24.09. 2:00 1015 - 0,5
Fr, 23.09. 20:00 1015 - 0,7
Fr, 23.09. 14:00 1017 - 1,4
Ortszeit Luftdruck NN (hPa) Tendenz (hPa in 3 Std.)
So, 25.09. 10:00 1013 + 0,4
So, 25.09. 9:50 1013 keine Meldung
So, 25.09. 9:40 1013 keine Meldung
So, 25.09. 9:30 1013 + 0,3
So, 25.09. 9:20 1013 keine Meldung
So, 25.09. 9:10 1013 keine Meldung
So, 25.09. 9:00 1013 + 0,3
So, 25.09. 8:30 1013 + 0,1
So, 25.09. 8:00 1013 + 0,1
So, 25.09. 7:30 1013 0,0
So, 25.09. 7:00 1013 - 0,1
Ortszeit Schneehöhe (cm)
So, 25.09. 8:00 0
So, 25.09. 2:00 0
Sa, 24.09. 20:00 0
Sa, 24.09. 14:00 0
Sa, 24.09. 8:00 0
Sa, 24.09. 2:00 0
Fr, 23.09. 20:00 0
Fr, 23.09. 14:00 0
Ortszeit Schneehöhe (cm)
So, 25.09. 10:00 0
So, 25.09. 9:50 0
So, 25.09. 9:40 0
So, 25.09. 9:30 0
So, 25.09. 9:20 0
So, 25.09. 9:10 0
So, 25.09. 9:00 0
So, 25.09. 8:30 0
So, 25.09. 8:00 0
So, 25.09. 7:30 0
So, 25.09. 7:00 0
Link zu dieser Seite / Seite empfehlen

Das Wetter in ...